BWA7415 MWCR-TTPP
Flight info
| Callsign | BWA7415 |
|---|---|
| Flight time | 3h 0m |
| Altitude | 39000 |
| Route | NALRO2 NALRO DCT OTEKO DCT FROST DCT MLY DCT TARBA DCT IKMAG DCT MASEN DCT LETEX DCT LEPEL DCT PENKO DCT ACORA DCT MASPA DCT CURRY DCT SHARK DCT TRI |
| Aircraft | B38M/M-SDE1FGHILORVWXY/HB1 |
Departure
| Time | 2026-04-26 22:36 |
|---|---|
| Airport | Owen Roberts International Airport (MWCR) |
Arrival
| Time | 2026-04-27 01:37 |
|---|---|
| Airport | Piarco International Airport (TTPP) |
| Time | Latitude | Longitude | Altitude | Speed | Heading |
|---|---|---|---|---|---|
| 2026-04-26 22:18 | 19.29486 | -81.35808 | 21 ft | 0 kts | 346° |
| 2026-04-26 22:27 | 19.29471 | -81.35804 | 25 ft | 2 kts | 341° |
| 2026-04-26 22:27 | 19.29456 | -81.35797 | 24 ft | 2 kts | 329° |
| 2026-04-26 22:27 | 19.29444 | -81.35786 | 26 ft | 2 kts | 295° |
| 2026-04-26 22:27 | 19.29442 | -81.35769 | 24 ft | 2 kts | 259° |
| 2026-04-26 22:28 | 19.29443 | -81.35761 | 26 ft | 0 kts | 257° |
| 2026-04-26 22:32 | 19.29442 | -81.35766 | 26 ft | 2 kts | 257° |
| 2026-04-26 22:32 | 19.29435 | -81.35790 | 22 ft | 6 kts | 245° |
| 2026-04-26 22:32 | 19.29382 | -81.35813 | 21 ft | 11 kts | 178° |
| 2026-04-26 22:32 | 19.29292 | -81.35803 | 19 ft | 15 kts | 197° |
| 2026-04-26 22:33 | 19.29250 | -81.35897 | 19 ft | 16 kts | 256° |
| 2026-04-26 22:33 | 19.29193 | -81.36142 | 20 ft | 19 kts | 256° |
| 2026-04-26 22:33 | 19.29159 | -81.36284 | 20 ft | 21 kts | 256° |
| 2026-04-26 22:34 | 19.29122 | -81.36440 | 22 ft | 23 kts | 256° |
| 2026-04-26 22:34 | 19.29078 | -81.36631 | 18 ft | 30 kts | 262° |
| 2026-04-26 22:34 | 19.29053 | -81.36756 | 21 ft | 18 kts | 254° |
| 2026-04-26 22:34 | 19.29042 | -81.36912 | 21 ft | 22 kts | 283° |
| 2026-04-26 22:35 | 19.29061 | -81.36987 | 21 ft | 11 kts | 239° |
| 2026-04-26 22:35 | 19.29004 | -81.36974 | 21 ft | 11 kts | 107° |
| 2026-04-26 22:35 | 19.29018 | -81.36885 | 23 ft | 16 kts | 76° |
| 2026-04-26 22:35 | 19.29077 | -81.36635 | 18 ft | 70 kts | 76° |
| 2026-04-26 22:36 | 19.29260 | -81.35861 | 19 ft | 144 kts | 76° |
| 2026-04-26 22:36 | 19.29537 | -81.34630 | 164 ft | 192 kts | 78° |
| 2026-04-26 22:36 | 19.29848 | -81.33205 | 955 ft | 203 kts | 77° |
| 2026-04-26 22:36 | 19.30131 | -81.31707 | 1848 ft | 211 kts | 87° |
| 2026-04-26 22:37 | 19.29721 | -81.30140 | 2084 ft | 239 kts | 128° |
| 2026-04-26 22:37 | 19.28576 | -81.29040 | 2517 ft | 254 kts | 142° |
| 2026-04-26 22:37 | 19.27228 | -81.27787 | 3108 ft | 266 kts | 137° |
| 2026-04-26 22:37 | 19.25894 | -81.26408 | 3886 ft | 269 kts | 135° |
| 2026-04-26 22:38 | 19.24585 | -81.24966 | 4652 ft | 274 kts | 134° |
| 2026-04-26 22:38 | 19.23288 | -81.23466 | 5403 ft | 278 kts | 130° |
| 2026-04-26 22:38 | 19.22388 | -81.21670 | 6181 ft | 279 kts | 105° |
| 2026-04-26 22:38 | 19.21953 | -81.19651 | 6860 ft | 284 kts | 101° |
| 2026-04-26 22:39 | 19.21537 | -81.17602 | 7584 ft | 286 kts | 101° |
| 2026-04-26 22:39 | 19.21128 | -81.15526 | 8298 ft | 290 kts | 99° |
| 2026-04-26 22:39 | 19.20724 | -81.13422 | 9027 ft | 293 kts | 99° |
| 2026-04-26 22:39 | 19.20326 | -81.11327 | 9756 ft | 297 kts | 99° |
| 2026-04-26 22:40 | 19.19918 | -81.09167 | 10337 ft | 305 kts | 99° |
| 2026-04-26 22:40 | 19.19492 | -81.06906 | 10686 ft | 321 kts | 99° |
| 2026-04-26 22:40 | 19.19050 | -81.04553 | 11164 ft | 330 kts | 99° |
| 2026-04-26 22:40 | 19.18620 | -81.02264 | 11859 ft | 333 kts | 99° |
| 2026-04-26 22:41 | 19.18164 | -80.99838 | 12530 ft | 338 kts | 99° |
| 2026-04-26 22:41 | 19.17703 | -80.97388 | 13255 ft | 342 kts | 99° |
| 2026-04-26 22:41 | 19.17235 | -80.94906 | 13935 ft | 346 kts | 100° |
| 2026-04-26 22:41 | 19.16762 | -80.92394 | 14595 ft | 350 kts | 100° |
| 2026-04-26 22:42 | 19.16283 | -80.89854 | 15245 ft | 355 kts | 100° |
| 2026-04-26 22:42 | 19.15797 | -80.87278 | 15883 ft | 359 kts | 100° |
| 2026-04-26 22:42 | 19.15305 | -80.84673 | 16513 ft | 363 kts | 101° |
| 2026-04-26 22:42 | 19.14806 | -80.82031 | 17126 ft | 368 kts | 101° |
| 2026-04-26 22:43 | 19.14302 | -80.79364 | 17736 ft | 372 kts | 101° |
| 2026-04-26 22:43 | 19.13790 | -80.76661 | 18315 ft | 376 kts | 101° |
| 2026-04-26 22:43 | 19.13274 | -80.73936 | 18813 ft | 381 kts | 101° |
| 2026-04-26 22:43 | 19.12757 | -80.71211 | 19308 ft | 385 kts | 101° |
| 2026-04-26 22:44 | 19.12229 | -80.68425 | 19804 ft | 389 kts | 101° |
| 2026-04-26 22:44 | 19.11693 | -80.65608 | 20298 ft | 393 kts | 101° |
| 2026-04-26 22:44 | 19.11152 | -80.62760 | 20797 ft | 397 kts | 101° |
| 2026-04-26 22:44 | 19.10606 | -80.59889 | 21288 ft | 401 kts | 101° |
| 2026-04-26 22:45 | 19.10052 | -80.56981 | 21772 ft | 405 kts | 101° |
| 2026-04-26 22:45 | 19.09646 | -80.54852 | 22126 ft | 408 kts | 101° |
| 2026-04-26 22:45 | 19.09082 | -80.51897 | 22610 ft | 412 kts | 101° |
| 2026-04-26 22:45 | 19.08513 | -80.48913 | 23079 ft | 416 kts | 101° |
| 2026-04-26 22:46 | 19.07937 | -80.45901 | 23546 ft | 420 kts | 101° |
| 2026-04-26 22:46 | 19.07356 | -80.42865 | 23957 ft | 423 kts | 101° |
| 2026-04-26 22:46 | 19.06768 | -80.39795 | 24376 ft | 426 kts | 101° |
| 2026-04-26 22:46 | 19.06185 | -80.36751 | 24787 ft | 430 kts | 101° |
| 2026-04-26 22:47 | 19.05581 | -80.33606 | 25202 ft | 433 kts | 101° |
| 2026-04-26 22:47 | 19.04988 | -80.30515 | 25595 ft | 436 kts | 101° |
| 2026-04-26 22:47 | 19.04382 | -80.27361 | 25994 ft | 439 kts | 101° |
| 2026-04-26 22:47 | 19.03772 | -80.24186 | 26389 ft | 442 kts | 102° |
| 2026-04-26 22:48 | 19.03142 | -80.20992 | 26766 ft | 445 kts | 103° |
| 2026-04-26 22:48 | 19.02412 | -80.17797 | 27149 ft | 448 kts | 104° |
| 2026-04-26 22:48 | 19.01679 | -80.14571 | 27529 ft | 451 kts | 104° |
| 2026-04-26 22:48 | 19.00948 | -80.11332 | 27904 ft | 454 kts | 104° |
| 2026-04-26 22:49 | 19.00215 | -80.08077 | 28269 ft | 457 kts | 104° |
| 2026-04-26 22:49 | 18.99475 | -80.04795 | 28627 ft | 460 kts | 104° |
| 2026-04-26 22:49 | 18.98731 | -80.01498 | 28991 ft | 463 kts | 104° |
| 2026-04-26 22:49 | 18.97982 | -79.98180 | 29349 ft | 466 kts | 104° |
| 2026-04-26 22:50 | 18.97227 | -79.94844 | 29678 ft | 469 kts | 104° |
| 2026-04-26 22:50 | 18.96467 | -79.91480 | 30024 ft | 472 kts | 104° |
| 2026-04-26 22:50 | 18.95701 | -79.88099 | 30306 ft | 474 kts | 104° |
| 2026-04-26 22:50 | 18.94931 | -79.84700 | 30598 ft | 477 kts | 104° |
| 2026-04-26 22:51 | 18.94156 | -79.81285 | 30887 ft | 479 kts | 104° |
| 2026-04-26 22:51 | 18.93377 | -79.77850 | 31178 ft | 482 kts | 105° |
| 2026-04-26 22:51 | 18.92593 | -79.74401 | 31468 ft | 484 kts | 105° |
| 2026-04-26 22:51 | 18.91805 | -79.70933 | 31741 ft | 487 kts | 105° |
| 2026-04-26 22:52 | 18.91011 | -79.67448 | 32007 ft | 489 kts | 105° |
| 2026-04-26 22:52 | 18.90214 | -79.63948 | 32277 ft | 492 kts | 105° |
| 2026-04-26 22:52 | 18.89411 | -79.60427 | 32555 ft | 494 kts | 105° |
| 2026-04-26 22:52 | 18.88604 | -79.56892 | 32820 ft | 497 kts | 105° |
| 2026-04-26 22:53 | 18.87792 | -79.53337 | 33066 ft | 499 kts | 105° |
| 2026-04-26 22:53 | 18.86984 | -79.49810 | 33330 ft | 501 kts | 105° |
| 2026-04-26 22:53 | 18.86160 | -79.46221 | 33588 ft | 504 kts | 105° |
| 2026-04-26 22:53 | 18.85332 | -79.42615 | 33853 ft | 506 kts | 105° |
| 2026-04-26 22:54 | 18.84500 | -79.38999 | 34073 ft | 509 kts | 105° |
| 2026-04-26 22:54 | 18.83665 | -79.35372 | 34307 ft | 510 kts | 105° |
| 2026-04-26 22:54 | 18.82822 | -79.31715 | 34550 ft | 512 kts | 105° |
| 2026-04-26 22:54 | 18.81979 | -79.28060 | 34798 ft | 513 kts | 105° |
| 2026-04-26 22:55 | 18.81134 | -79.24400 | 35078 ft | 513 kts | 106° |
| 2026-04-26 22:55 | 18.80290 | -79.20746 | 35373 ft | 513 kts | 106° |
| 2026-04-26 22:55 | 18.79443 | -79.17083 | 35677 ft | 512 kts | 106° |
| 2026-04-26 22:55 | 18.78599 | -79.13438 | 36016 ft | 510 kts | 106° |
| 2026-04-26 22:56 | 18.77757 | -79.09806 | 36321 ft | 509 kts | 106° |
| 2026-04-26 22:56 | 18.76918 | -79.06187 | 36620 ft | 508 kts | 106° |
| 2026-04-26 22:56 | 18.76077 | -79.02568 | 36899 ft | 507 kts | 107° |
| 2026-04-26 22:56 | 18.74997 | -78.99048 | 37168 ft | 502 kts | 114° |
| 2026-04-26 22:57 | 18.73757 | -78.95607 | 37406 ft | 502 kts | 114° |
| 2026-04-26 22:57 | 18.72531 | -78.92211 | 37653 ft | 501 kts | 114° |
| 2026-04-26 22:57 | 18.71285 | -78.88781 | 37906 ft | 500 kts | 114° |
| 2026-04-26 22:57 | 18.70041 | -78.85360 | 38143 ft | 499 kts | 114° |
| 2026-04-26 22:58 | 18.68796 | -78.81940 | 38376 ft | 499 kts | 114° |
| 2026-04-26 22:58 | 18.67555 | -78.78533 | 38594 ft | 498 kts | 114° |
| 2026-04-26 22:58 | 18.66313 | -78.75124 | 38771 ft | 497 kts | 114° |
| 2026-04-26 22:58 | 18.65070 | -78.71717 | 38920 ft | 497 kts | 114° |
| 2026-04-26 22:59 | 18.63829 | -78.68316 | 38944 ft | 497 kts | 114° |
| 2026-04-26 22:59 | 18.61352 | -78.61536 | 38925 ft | 494 kts | 114° |
| 2026-04-26 23:00 | 18.58876 | -78.54766 | 38932 ft | 495 kts | 114° |
| 2026-04-26 23:00 | 18.56646 | -78.48677 | 38929 ft | 495 kts | 115° |
| 2026-04-26 23:01 | 18.54182 | -78.41956 | 38929 ft | 495 kts | 114° |
| 2026-04-26 23:01 | 18.51702 | -78.35202 | 38931 ft | 494 kts | 114° |
| 2026-04-26 23:02 | 18.49624 | -78.29547 | 38931 ft | 494 kts | 115° |
| 2026-04-26 23:02 | 18.47371 | -78.23424 | 38929 ft | 494 kts | 115° |
| 2026-04-26 23:03 | 18.44889 | -78.16686 | 38922 ft | 494 kts | 115° |
| 2026-04-26 23:03 | 18.42418 | -78.09987 | 38917 ft | 493 kts | 115° |
| 2026-04-26 23:04 | 18.39930 | -78.03252 | 38922 ft | 493 kts | 115° |
| 2026-04-26 23:04 | 18.37443 | -77.96523 | 38918 ft | 493 kts | 115° |
| 2026-04-26 23:05 | 18.34954 | -77.89799 | 38921 ft | 493 kts | 115° |
| 2026-04-26 23:05 | 18.32464 | -77.83084 | 38941 ft | 493 kts | 115° |
| 2026-04-26 23:06 | 18.29973 | -77.76372 | 38947 ft | 492 kts | 115° |
| 2026-04-26 23:06 | 18.27484 | -77.69671 | 38948 ft | 491 kts | 115° |
| 2026-04-26 23:07 | 18.25007 | -77.63015 | 38947 ft | 491 kts | 115° |
| 2026-04-26 23:07 | 18.22513 | -77.56318 | 38954 ft | 491 kts | 115° |
| 2026-04-26 23:08 | 18.20023 | -77.49642 | 38949 ft | 490 kts | 115° |
| 2026-04-26 23:08 | 18.17530 | -77.42968 | 38954 ft | 490 kts | 115° |
| 2026-04-26 23:09 | 18.15040 | -77.36306 | 38950 ft | 489 kts | 115° |
| 2026-04-26 23:09 | 18.12788 | -77.30287 | 38941 ft | 489 kts | 115° |
| 2026-04-26 23:10 | 18.10540 | -77.24290 | 38945 ft | 488 kts | 115° |
| 2026-04-26 23:10 | 18.08048 | -77.17646 | 38935 ft | 488 kts | 115° |
| 2026-04-26 23:11 | 18.05558 | -77.11017 | 38926 ft | 487 kts | 115° |
| 2026-04-26 23:11 | 18.03071 | -77.04403 | 38938 ft | 487 kts | 115° |
| 2026-04-26 23:12 | 18.00600 | -76.97838 | 38931 ft | 486 kts | 115° |
| 2026-04-26 23:12 | 17.98353 | -76.91873 | 38935 ft | 486 kts | 115° |
| 2026-04-26 23:13 | 17.95865 | -76.85275 | 38937 ft | 485 kts | 115° |
| 2026-04-26 23:13 | 17.93373 | -76.78695 | 38932 ft | 484 kts | 117° |
| 2026-04-26 23:14 | 17.90654 | -76.72248 | 38939 ft | 483 kts | 118° |
| 2026-04-26 23:14 | 17.87955 | -76.65796 | 38934 ft | 482 kts | 118° |
| 2026-04-26 23:15 | 17.85255 | -76.59341 | 38927 ft | 482 kts | 118° |
| 2026-04-26 23:15 | 17.82561 | -76.52906 | 38924 ft | 482 kts | 118° |
| 2026-04-26 23:16 | 17.79862 | -76.46464 | 38922 ft | 482 kts | 118° |
| 2026-04-26 23:16 | 17.77164 | -76.40033 | 38922 ft | 481 kts | 118° |
| 2026-04-26 23:17 | 17.74482 | -76.33648 | 38923 ft | 481 kts | 118° |
| 2026-04-26 23:17 | 17.71779 | -76.27219 | 38929 ft | 481 kts | 118° |
| 2026-04-26 23:18 | 17.69080 | -76.20805 | 38925 ft | 481 kts | 118° |
| 2026-04-26 23:18 | 17.66377 | -76.14390 | 38929 ft | 480 kts | 118° |
| 2026-04-26 23:19 | 17.63674 | -76.07981 | 38931 ft | 480 kts | 118° |
| 2026-04-26 23:19 | 17.61228 | -76.02189 | 38936 ft | 480 kts | 118° |
| 2026-04-26 23:20 | 17.58539 | -75.95826 | 38938 ft | 480 kts | 118° |
| 2026-04-26 23:20 | 17.55957 | -75.89724 | 38942 ft | 480 kts | 118° |
| 2026-04-26 23:21 | 17.53383 | -75.83646 | 38935 ft | 480 kts | 118° |
| 2026-04-26 23:21 | 17.50676 | -75.77261 | 38937 ft | 479 kts | 118° |
| 2026-04-26 23:22 | 17.47969 | -75.70882 | 38940 ft | 479 kts | 118° |
| 2026-04-26 23:22 | 17.45259 | -75.64501 | 38941 ft | 478 kts | 118° |
| 2026-04-26 23:23 | 17.42553 | -75.58138 | 38940 ft | 478 kts | 118° |
| 2026-04-26 23:23 | 17.39864 | -75.51823 | 38941 ft | 477 kts | 118° |
| 2026-04-26 23:24 | 17.37160 | -75.45479 | 38941 ft | 477 kts | 118° |
| 2026-04-26 23:24 | 17.34454 | -75.39135 | 38940 ft | 477 kts | 118° |
| 2026-04-26 23:25 | 17.31749 | -75.32799 | 38939 ft | 476 kts | 119° |
| 2026-04-26 23:25 | 17.29045 | -75.26476 | 38938 ft | 476 kts | 119° |
| 2026-04-26 23:26 | 17.26343 | -75.20161 | 38941 ft | 475 kts | 119° |
| 2026-04-26 23:26 | 17.23640 | -75.13850 | 38945 ft | 475 kts | 119° |
| 2026-04-26 23:27 | 17.20935 | -75.07542 | 38941 ft | 475 kts | 119° |
| 2026-04-26 23:27 | 17.18246 | -75.01276 | 38945 ft | 468 kts | 121° |
| 2026-04-26 23:28 | 17.15603 | -74.95124 | 38943 ft | 466 kts | 121° |
| 2026-04-26 23:28 | 17.12943 | -74.88940 | 38943 ft | 466 kts | 121° |
| 2026-04-26 23:29 | 17.10289 | -74.82775 | 38947 ft | 465 kts | 121° |
| 2026-04-26 23:29 | 17.07636 | -74.76620 | 38939 ft | 464 kts | 121° |
| 2026-04-26 23:30 | 17.05244 | -74.71074 | 38945 ft | 463 kts | 121° |
| 2026-04-26 23:30 | 17.02598 | -74.64943 | 38944 ft | 462 kts | 121° |
| 2026-04-26 23:31 | 16.99952 | -74.58821 | 38940 ft | 462 kts | 121° |
| 2026-04-26 23:31 | 16.97549 | -74.53266 | 38940 ft | 462 kts | 121° |
| 2026-04-26 23:32 | 16.94896 | -74.47141 | 38948 ft | 462 kts | 121° |
| 2026-04-26 23:32 | 16.92263 | -74.41064 | 38945 ft | 462 kts | 121° |
| 2026-04-26 23:33 | 16.89613 | -74.34956 | 38941 ft | 462 kts | 121° |
| 2026-04-26 23:33 | 16.86957 | -74.28839 | 38944 ft | 462 kts | 121° |
| 2026-04-26 23:34 | 16.84302 | -74.22730 | 38944 ft | 462 kts | 121° |
| 2026-04-26 23:34 | 16.81645 | -74.16623 | 38940 ft | 462 kts | 121° |
| 2026-04-26 23:35 | 16.78983 | -74.10510 | 38937 ft | 462 kts | 121° |
| 2026-04-26 23:35 | 16.76457 | -74.04716 | 38943 ft | 462 kts | 121° |
| 2026-04-26 23:36 | 16.73929 | -73.98919 | 38942 ft | 462 kts | 121° |
| 2026-04-26 23:36 | 16.71500 | -73.93358 | 38941 ft | 462 kts | 121° |
| 2026-04-26 23:37 | 16.68851 | -73.87296 | 38942 ft | 463 kts | 121° |
| 2026-04-26 23:37 | 16.66309 | -73.81485 | 38945 ft | 463 kts | 121° |
| 2026-04-26 23:38 | 16.63765 | -73.75673 | 38942 ft | 463 kts | 121° |
| 2026-04-26 23:38 | 16.61089 | -73.69565 | 38943 ft | 463 kts | 121° |
| 2026-04-26 23:39 | 16.58549 | -73.63773 | 38944 ft | 463 kts | 121° |
| 2026-04-26 23:39 | 16.55984 | -73.57929 | 38945 ft | 463 kts | 121° |
| 2026-04-26 23:40 | 16.53317 | -73.51860 | 38945 ft | 464 kts | 121° |
| 2026-04-26 23:40 | 16.50886 | -73.46357 | 38945 ft | 464 kts | 121° |
| 2026-04-26 23:41 | 16.48185 | -73.40260 | 38946 ft | 463 kts | 121° |
| 2026-04-26 23:41 | 16.45483 | -73.34163 | 38943 ft | 464 kts | 121° |
| 2026-04-26 23:42 | 16.42779 | -73.28069 | 38943 ft | 464 kts | 121° |
| 2026-04-26 23:42 | 16.38718 | -73.18924 | 38947 ft | 464 kts | 121° |
| 2026-04-26 23:43 | 16.36011 | -73.12834 | 38946 ft | 463 kts | 121° |
| 2026-04-26 23:43 | 16.33301 | -73.06745 | 38942 ft | 463 kts | 121° |
| 2026-04-26 23:44 | 16.30589 | -73.00656 | 38944 ft | 463 kts | 121° |
| 2026-04-26 23:44 | 16.27877 | -72.94574 | 38944 ft | 463 kts | 121° |
| 2026-04-26 23:45 | 16.25620 | -72.89514 | 38944 ft | 463 kts | 121° |
| 2026-04-26 23:45 | 16.22461 | -72.82452 | 38946 ft | 463 kts | 121° |
| 2026-04-26 23:46 | 16.19743 | -72.76377 | 38945 ft | 463 kts | 121° |
| 2026-04-26 23:46 | 16.17024 | -72.70308 | 38948 ft | 463 kts | 121° |
| 2026-04-26 23:47 | 16.14303 | -72.64239 | 38947 ft | 463 kts | 121° |
| 2026-04-26 23:47 | 16.11579 | -72.58170 | 38943 ft | 462 kts | 121° |
| 2026-04-26 23:48 | 16.08859 | -72.52114 | 38946 ft | 462 kts | 121° |
| 2026-04-26 23:48 | 16.06138 | -72.46061 | 38946 ft | 462 kts | 121° |
| 2026-04-26 23:49 | 16.03874 | -72.41030 | 38950 ft | 461 kts | 121° |
| 2026-04-26 23:49 | 16.01154 | -72.34990 | 38949 ft | 461 kts | 121° |
| 2026-04-26 23:50 | 15.97982 | -72.27977 | 38952 ft | 460 kts | 121° |
| 2026-04-26 23:50 | 15.95681 | -72.22939 | 38947 ft | 460 kts | 121° |
| 2026-04-26 23:51 | 15.92492 | -72.15955 | 38946 ft | 460 kts | 121° |
| 2026-04-26 23:51 | 15.90190 | -72.10920 | 38946 ft | 460 kts | 121° |
| 2026-04-26 23:52 | 15.87442 | -72.04913 | 38947 ft | 460 kts | 121° |
| 2026-04-26 23:52 | 15.84709 | -71.98942 | 38951 ft | 461 kts | 121° |
| 2026-04-26 23:53 | 15.81954 | -71.92932 | 38945 ft | 461 kts | 121° |
| 2026-04-26 23:53 | 15.79196 | -71.86919 | 38951 ft | 461 kts | 121° |
| 2026-04-26 23:54 | 15.76437 | -71.80906 | 38942 ft | 462 kts | 121° |
| 2026-04-26 23:54 | 15.73672 | -71.74888 | 38949 ft | 462 kts | 121° |
| 2026-04-26 23:55 | 15.70901 | -71.68864 | 38952 ft | 462 kts | 121° |
| 2026-04-26 23:55 | 15.68128 | -71.62839 | 38948 ft | 463 kts | 121° |
| 2026-04-26 23:56 | 15.65351 | -71.56810 | 38952 ft | 463 kts | 121° |
| 2026-04-26 23:56 | 15.62586 | -71.50811 | 38953 ft | 463 kts | 121° |
| 2026-04-26 23:57 | 15.59804 | -71.44781 | 38953 ft | 464 kts | 121° |
| 2026-04-26 23:57 | 15.57017 | -71.38747 | 38952 ft | 464 kts | 121° |
| 2026-04-26 23:58 | 15.54228 | -71.32708 | 38947 ft | 464 kts | 120° |
| 2026-04-26 23:58 | 15.51526 | -71.26611 | 38951 ft | 465 kts | 120° |
| 2026-04-26 23:59 | 15.48817 | -71.20509 | 38948 ft | 466 kts | 120° |
| 2026-04-26 23:59 | 15.46103 | -71.14407 | 38954 ft | 466 kts | 120° |
| 2026-04-27 00:00 | 15.43389 | -71.08308 | 38957 ft | 466 kts | 120° |
| 2026-04-27 00:00 | 15.40675 | -71.02217 | 38950 ft | 466 kts | 120° |
| 2026-04-27 00:01 | 15.37974 | -70.96158 | 38949 ft | 465 kts | 120° |
| 2026-04-27 00:01 | 15.35208 | -70.90098 | 38955 ft | 465 kts | 120° |
| 2026-04-27 00:02 | 15.32435 | -70.84044 | 38947 ft | 465 kts | 120° |
| 2026-04-27 00:02 | 15.29664 | -70.77998 | 38954 ft | 464 kts | 120° |
| 2026-04-27 00:03 | 15.26891 | -70.71953 | 38953 ft | 464 kts | 120° |
| 2026-04-27 00:03 | 15.24135 | -70.65950 | 38951 ft | 464 kts | 120° |
| 2026-04-27 00:04 | 15.21361 | -70.59912 | 38953 ft | 464 kts | 120° |
| 2026-04-27 00:04 | 15.18586 | -70.53876 | 38950 ft | 464 kts | 120° |
| 2026-04-27 00:05 | 15.15807 | -70.47837 | 38954 ft | 465 kts | 120° |
| 2026-04-27 00:05 | 15.13026 | -70.41800 | 38954 ft | 465 kts | 120° |
| 2026-04-27 00:06 | 15.10243 | -70.35764 | 38952 ft | 464 kts | 120° |
| 2026-04-27 00:06 | 15.07368 | -70.29788 | 38955 ft | 463 kts | 122° |
| 2026-04-27 00:07 | 15.04413 | -70.23867 | 38952 ft | 463 kts | 122° |
| 2026-04-27 00:07 | 15.01463 | -70.17937 | 38954 ft | 463 kts | 122° |
| 2026-04-27 00:08 | 14.98514 | -70.12014 | 38957 ft | 463 kts | 122° |
| 2026-04-27 00:08 | 14.95562 | -70.06090 | 38950 ft | 463 kts | 122° |
| 2026-04-27 00:09 | 14.92628 | -70.00205 | 38952 ft | 464 kts | 122° |
| 2026-04-27 00:09 | 14.89672 | -69.94280 | 38956 ft | 464 kts | 122° |
| 2026-04-27 00:10 | 14.86712 | -69.88353 | 38954 ft | 464 kts | 122° |
| 2026-04-27 00:10 | 14.83743 | -69.82412 | 38954 ft | 464 kts | 122° |
| 2026-04-27 00:11 | 14.80776 | -69.76480 | 38957 ft | 464 kts | 122° |
| 2026-04-27 00:11 | 14.77808 | -69.70551 | 38956 ft | 465 kts | 122° |
| 2026-04-27 00:12 | 14.74853 | -69.64653 | 38960 ft | 465 kts | 122° |
| 2026-04-27 00:12 | 14.71877 | -69.58717 | 38956 ft | 465 kts | 122° |
| 2026-04-27 00:13 | 14.68899 | -69.52782 | 38956 ft | 465 kts | 122° |
| 2026-04-27 00:13 | 14.65922 | -69.46852 | 38958 ft | 465 kts | 122° |
| 2026-04-27 00:14 | 14.62944 | -69.40927 | 38958 ft | 465 kts | 122° |
| 2026-04-27 00:14 | 14.59963 | -69.34999 | 38963 ft | 465 kts | 122° |
| 2026-04-27 00:15 | 14.57002 | -69.29116 | 38956 ft | 464 kts | 122° |
| 2026-04-27 00:15 | 14.54021 | -69.23197 | 38956 ft | 464 kts | 122° |
| 2026-04-27 00:16 | 14.51039 | -69.17283 | 38962 ft | 464 kts | 122° |
| 2026-04-27 00:16 | 14.48061 | -69.11380 | 38961 ft | 464 kts | 122° |
| 2026-04-27 00:17 | 14.45082 | -69.05478 | 38962 ft | 463 kts | 122° |
| 2026-04-27 00:17 | 14.42104 | -68.99583 | 38958 ft | 463 kts | 122° |
| 2026-04-27 00:18 | 14.39124 | -68.93690 | 38955 ft | 463 kts | 122° |
| 2026-04-27 00:18 | 14.36145 | -68.87802 | 38961 ft | 463 kts | 122° |
| 2026-04-27 00:19 | 14.33187 | -68.81961 | 38960 ft | 462 kts | 122° |
| 2026-04-27 00:19 | 14.30212 | -68.76090 | 38961 ft | 462 kts | 122° |
| 2026-04-27 00:20 | 14.27233 | -68.70216 | 38957 ft | 462 kts | 122° |
| 2026-04-27 00:20 | 14.24259 | -68.64356 | 38961 ft | 461 kts | 122° |
| 2026-04-27 00:21 | 14.21284 | -68.58498 | 38959 ft | 461 kts | 122° |
| 2026-04-27 00:21 | 14.18309 | -68.52646 | 38960 ft | 461 kts | 122° |
| 2026-04-27 00:22 | 14.15336 | -68.46800 | 38957 ft | 460 kts | 122° |
| 2026-04-27 00:22 | 14.12364 | -68.40961 | 38960 ft | 460 kts | 122° |
| 2026-04-27 00:23 | 14.09389 | -68.35122 | 38956 ft | 459 kts | 122° |
| 2026-04-27 00:23 | 14.06437 | -68.29331 | 38957 ft | 459 kts | 122° |
| 2026-04-27 00:24 | 14.03469 | -68.23513 | 38961 ft | 458 kts | 122° |
| 2026-04-27 00:24 | 14.00504 | -68.17704 | 38961 ft | 458 kts | 122° |
| 2026-04-27 00:25 | 13.97544 | -68.11910 | 38962 ft | 456 kts | 122° |
| 2026-04-27 00:25 | 13.94594 | -68.06141 | 38963 ft | 455 kts | 122° |
| 2026-04-27 00:26 | 13.91654 | -68.00394 | 38963 ft | 453 kts | 122° |
| 2026-04-27 00:26 | 13.88725 | -67.94672 | 38961 ft | 451 kts | 122° |
| 2026-04-27 00:27 | 13.85798 | -67.88960 | 38961 ft | 449 kts | 122° |
| 2026-04-27 00:27 | 13.82888 | -67.83284 | 38959 ft | 447 kts | 122° |
| 2026-04-27 00:28 | 13.80008 | -67.77669 | 38962 ft | 446 kts | 122° |
| 2026-04-27 00:28 | 13.77110 | -67.72025 | 38961 ft | 446 kts | 122° |
| 2026-04-27 00:29 | 13.74216 | -67.66389 | 38963 ft | 445 kts | 122° |
| 2026-04-27 00:29 | 13.71322 | -67.60759 | 38962 ft | 445 kts | 122° |
| 2026-04-27 00:30 | 13.68429 | -67.55135 | 38962 ft | 445 kts | 122° |
| 2026-04-27 00:30 | 13.65615 | -67.49472 | 38952 ft | 448 kts | 116° |
| 2026-04-27 00:31 | 13.63258 | -67.43547 | 38963 ft | 448 kts | 117° |
| 2026-04-27 00:31 | 13.60831 | -67.37647 | 38963 ft | 448 kts | 117° |
| 2026-04-27 00:32 | 13.58388 | -67.31744 | 38964 ft | 449 kts | 117° |
| 2026-04-27 00:32 | 13.55937 | -67.25826 | 38965 ft | 450 kts | 117° |
| 2026-04-27 00:33 | 13.53495 | -67.19935 | 38964 ft | 451 kts | 117° |
| 2026-04-27 00:33 | 13.51033 | -67.14003 | 38967 ft | 452 kts | 117° |
| 2026-04-27 00:34 | 13.48566 | -67.08058 | 38969 ft | 453 kts | 117° |
| 2026-04-27 00:34 | 13.46093 | -67.02107 | 38968 ft | 453 kts | 117° |
| 2026-04-27 00:35 | 13.43616 | -66.96150 | 38970 ft | 453 kts | 117° |
| 2026-04-27 00:35 | 13.41140 | -66.90201 | 38965 ft | 452 kts | 117° |
| 2026-04-27 00:36 | 13.38664 | -66.84256 | 38966 ft | 452 kts | 117° |
| 2026-04-27 00:36 | 13.36605 | -66.79317 | 38968 ft | 452 kts | 117° |
| 2026-04-27 00:37 | 13.34130 | -66.73380 | 38969 ft | 452 kts | 117° |
| 2026-04-27 00:37 | 13.31251 | -66.66484 | 38969 ft | 451 kts | 117° |
| 2026-04-27 00:38 | 13.29181 | -66.61528 | 38967 ft | 451 kts | 117° |
| 2026-04-27 00:38 | 13.26727 | -66.55656 | 38969 ft | 450 kts | 117° |
| 2026-04-27 00:39 | 13.24256 | -66.49751 | 38968 ft | 450 kts | 117° |
| 2026-04-27 00:39 | 13.21788 | -66.43854 | 38969 ft | 449 kts | 117° |
| 2026-04-27 00:40 | 13.19322 | -66.37968 | 38969 ft | 448 kts | 117° |
| 2026-04-27 00:40 | 13.16857 | -66.32089 | 38967 ft | 448 kts | 117° |
| 2026-04-27 00:41 | 13.14394 | -66.26220 | 38969 ft | 448 kts | 117° |
| 2026-04-27 00:41 | 13.11934 | -66.20359 | 38971 ft | 447 kts | 117° |
| 2026-04-27 00:42 | 13.09471 | -66.14499 | 38971 ft | 447 kts | 117° |
| 2026-04-27 00:42 | 13.07006 | -66.08636 | 38972 ft | 447 kts | 117° |
| 2026-04-27 00:43 | 13.04558 | -66.02820 | 38971 ft | 447 kts | 117° |
| 2026-04-27 00:43 | 13.02091 | -65.96961 | 38968 ft | 447 kts | 117° |
| 2026-04-27 00:44 | 12.99624 | -65.91108 | 38969 ft | 447 kts | 117° |
| 2026-04-27 00:44 | 12.97156 | -65.85254 | 38971 ft | 447 kts | 117° |
| 2026-04-27 00:45 | 12.94682 | -65.79393 | 38973 ft | 448 kts | 117° |
| 2026-04-27 00:45 | 12.92206 | -65.73531 | 38969 ft | 448 kts | 117° |
| 2026-04-27 00:46 | 12.89726 | -65.67663 | 38970 ft | 449 kts | 117° |
| 2026-04-27 00:46 | 12.87256 | -65.61824 | 38971 ft | 449 kts | 117° |
| 2026-04-27 00:47 | 12.84774 | -65.55958 | 38971 ft | 448 kts | 117° |
| 2026-04-27 00:47 | 12.82288 | -65.50090 | 38974 ft | 448 kts | 117° |
| 2026-04-27 00:48 | 12.79804 | -65.44229 | 38972 ft | 448 kts | 117° |
| 2026-04-27 00:48 | 12.77334 | -65.38409 | 38971 ft | 448 kts | 117° |
| 2026-04-27 00:49 | 12.74853 | -65.32562 | 38974 ft | 448 kts | 117° |
| 2026-04-27 00:49 | 12.72368 | -65.26713 | 38973 ft | 447 kts | 117° |
| 2026-04-27 00:50 | 12.68652 | -65.17973 | 38974 ft | 446 kts | 117° |
| 2026-04-27 00:51 | 12.66177 | -65.12155 | 38975 ft | 445 kts | 117° |
| 2026-04-27 00:51 | 12.63705 | -65.06351 | 38977 ft | 444 kts | 117° |
| 2026-04-27 00:52 | 12.61239 | -65.00565 | 38975 ft | 443 kts | 117° |
| 2026-04-27 00:52 | 12.58776 | -64.94787 | 38974 ft | 442 kts | 117° |
| 2026-04-27 00:53 | 12.56313 | -64.89016 | 38973 ft | 442 kts | 117° |
| 2026-04-27 00:53 | 12.53853 | -64.83256 | 38972 ft | 441 kts | 117° |
| 2026-04-27 00:54 | 12.51412 | -64.77543 | 38977 ft | 441 kts | 117° |
| 2026-04-27 00:54 | 12.48955 | -64.71797 | 38975 ft | 441 kts | 117° |
| 2026-04-27 00:55 | 12.46495 | -64.66047 | 38975 ft | 440 kts | 117° |
| 2026-04-27 00:55 | 12.44040 | -64.60312 | 38974 ft | 440 kts | 117° |
| 2026-04-27 00:56 | 12.41578 | -64.54566 | 38979 ft | 441 kts | 117° |
| 2026-04-27 00:56 | 12.39111 | -64.48810 | 38981 ft | 442 kts | 117° |
| 2026-04-27 00:57 | 12.36641 | -64.43054 | 38976 ft | 442 kts | 117° |
| 2026-04-27 00:57 | 12.33639 | -64.37678 | 38978 ft | 438 kts | 126° |
| 2026-04-27 00:58 | 12.30692 | -64.32931 | 38978 ft | 439 kts | 126° |
| 2026-04-27 00:58 | 12.27404 | -64.27668 | 38977 ft | 439 kts | 126° |
| 2026-04-27 00:59 | 12.24111 | -64.22406 | 38981 ft | 439 kts | 126° |
| 2026-04-27 00:59 | 12.20820 | -64.17148 | 38980 ft | 439 kts | 126° |
| 2026-04-27 01:00 | 12.17529 | -64.11894 | 38980 ft | 438 kts | 126° |
| 2026-04-27 01:00 | 12.14537 | -64.07118 | 38980 ft | 438 kts | 126° |
| 2026-04-27 01:01 | 12.11247 | -64.01871 | 38978 ft | 438 kts | 126° |
| 2026-04-27 01:01 | 12.07959 | -63.96630 | 38976 ft | 438 kts | 126° |
| 2026-04-27 01:02 | 12.04672 | -63.91391 | 38981 ft | 438 kts | 126° |
| 2026-04-27 01:02 | 12.01389 | -63.86160 | 38978 ft | 437 kts | 126° |
| 2026-04-27 01:03 | 11.98100 | -63.80919 | 38978 ft | 438 kts | 126° |
| 2026-04-27 01:03 | 11.94813 | -63.75686 | 38977 ft | 438 kts | 126° |
| 2026-04-27 01:04 | 11.91542 | -63.70479 | 38976 ft | 438 kts | 126° |
| 2026-04-27 01:04 | 11.88249 | -63.65241 | 38984 ft | 438 kts | 126° |
| 2026-04-27 01:05 | 11.84956 | -63.60005 | 38985 ft | 438 kts | 126° |
| 2026-04-27 01:05 | 11.81658 | -63.54763 | 38986 ft | 438 kts | 126° |
| 2026-04-27 01:06 | 11.78427 | -63.49631 | 38483 ft | 424 kts | 126° |
| 2026-04-27 01:06 | 11.77142 | -63.47589 | 37941 ft | 424 kts | 126° |
| 2026-04-27 01:06 | 11.75548 | -63.45059 | 37358 ft | 422 kts | 126° |
| 2026-04-27 01:06 | 11.73964 | -63.42546 | 36881 ft | 419 kts | 126° |
| 2026-04-27 01:07 | 11.72395 | -63.40056 | 36405 ft | 415 kts | 126° |
| 2026-04-27 01:07 | 11.70837 | -63.37585 | 35913 ft | 413 kts | 126° |
| 2026-04-27 01:07 | 11.69285 | -63.35124 | 35416 ft | 412 kts | 126° |
| 2026-04-27 01:07 | 11.67737 | -63.32669 | 34929 ft | 410 kts | 126° |
| 2026-04-27 01:08 | 11.66196 | -63.30228 | 34442 ft | 409 kts | 125° |
| 2026-04-27 01:08 | 11.64677 | -63.27820 | 33964 ft | 408 kts | 125° |
| 2026-04-27 01:08 | 11.63142 | -63.25389 | 33416 ft | 407 kts | 125° |
| 2026-04-27 01:08 | 11.61613 | -63.22967 | 32924 ft | 405 kts | 125° |
| 2026-04-27 01:09 | 11.60236 | -63.20788 | 32511 ft | 403 kts | 125° |
| 2026-04-27 01:09 | 11.58862 | -63.18613 | 32096 ft | 400 kts | 125° |
| 2026-04-27 01:09 | 11.57359 | -63.16233 | 31645 ft | 398 kts | 125° |
| 2026-04-27 01:09 | 11.55862 | -63.13863 | 31197 ft | 397 kts | 125° |
| 2026-04-27 01:10 | 11.54370 | -63.11503 | 30754 ft | 395 kts | 125° |
| 2026-04-27 01:10 | 11.53031 | -63.09385 | 30362 ft | 394 kts | 125° |
| 2026-04-27 01:10 | 11.51696 | -63.07275 | 29950 ft | 393 kts | 125° |
| 2026-04-27 01:10 | 11.50508 | -63.05395 | 29545 ft | 391 kts | 125° |
| 2026-04-27 01:11 | 11.49035 | -63.03068 | 29090 ft | 389 kts | 125° |
| 2026-04-27 01:11 | 11.47576 | -63.00762 | 28673 ft | 386 kts | 125° |
| 2026-04-27 01:11 | 11.46128 | -62.98474 | 28261 ft | 382 kts | 125° |
| 2026-04-27 01:11 | 11.44829 | -62.96422 | 27889 ft | 380 kts | 125° |
| 2026-04-27 01:12 | 11.43400 | -62.94164 | 27482 ft | 377 kts | 125° |
| 2026-04-27 01:12 | 11.41982 | -62.91926 | 27086 ft | 375 kts | 125° |
| 2026-04-27 01:12 | 11.40573 | -62.89701 | 26689 ft | 372 kts | 125° |
| 2026-04-27 01:12 | 11.39171 | -62.87488 | 26298 ft | 370 kts | 124° |
| 2026-04-27 01:13 | 11.37781 | -62.85296 | 25910 ft | 368 kts | 124° |
| 2026-04-27 01:13 | 11.36412 | -62.83136 | 25531 ft | 366 kts | 124° |
| 2026-04-27 01:13 | 11.35033 | -62.80960 | 25149 ft | 364 kts | 124° |
| 2026-04-27 01:13 | 11.33663 | -62.78800 | 24771 ft | 362 kts | 124° |
| 2026-04-27 01:14 | 11.32296 | -62.76645 | 24391 ft | 361 kts | 124° |
| 2026-04-27 01:14 | 11.30939 | -62.74506 | 24012 ft | 359 kts | 124° |
| 2026-04-27 01:14 | 11.29583 | -62.72369 | 23642 ft | 358 kts | 124° |
| 2026-04-27 01:14 | 11.28365 | -62.70451 | 23257 ft | 357 kts | 124° |
| 2026-04-27 01:15 | 11.27022 | -62.68334 | 22842 ft | 354 kts | 124° |
| 2026-04-27 01:15 | 11.25688 | -62.66234 | 22468 ft | 351 kts | 124° |
| 2026-04-27 01:15 | 11.24616 | -62.64546 | 22170 ft | 349 kts | 124° |
| 2026-04-27 01:15 | 11.23305 | -62.62481 | 21810 ft | 346 kts | 124° |
| 2026-04-27 01:16 | 11.22004 | -62.60434 | 21454 ft | 343 kts | 124° |
| 2026-04-27 01:16 | 11.20716 | -62.58406 | 21104 ft | 340 kts | 124° |
| 2026-04-27 01:16 | 11.19435 | -62.56390 | 20754 ft | 337 kts | 124° |
| 2026-04-27 01:16 | 11.18165 | -62.54393 | 20407 ft | 335 kts | 124° |
| 2026-04-27 01:17 | 11.16904 | -62.52410 | 20059 ft | 332 kts | 124° |
| 2026-04-27 01:17 | 11.15652 | -62.50440 | 19719 ft | 330 kts | 124° |
| 2026-04-27 01:17 | 11.14408 | -62.48484 | 19379 ft | 328 kts | 124° |
| 2026-04-27 01:17 | 11.13169 | -62.46537 | 19042 ft | 326 kts | 124° |
| 2026-04-27 01:18 | 11.11939 | -62.44603 | 18706 ft | 324 kts | 124° |
| 2026-04-27 01:18 | 11.10716 | -62.42681 | 18368 ft | 323 kts | 124° |
| 2026-04-27 01:18 | 11.09513 | -62.40791 | 18000 ft | 321 kts | 124° |
| 2026-04-27 01:18 | 11.08297 | -62.38881 | 17636 ft | 319 kts | 124° |
| 2026-04-27 01:19 | 11.07093 | -62.36990 | 17295 ft | 316 kts | 124° |
| 2026-04-27 01:19 | 11.05903 | -62.35121 | 16965 ft | 313 kts | 124° |
| 2026-04-27 01:19 | 11.04722 | -62.33266 | 16638 ft | 311 kts | 124° |
| 2026-04-27 01:19 | 11.03552 | -62.31431 | 16306 ft | 308 kts | 124° |
| 2026-04-27 01:20 | 11.02393 | -62.29611 | 15998 ft | 305 kts | 124° |
| 2026-04-27 01:20 | 11.01242 | -62.27804 | 15677 ft | 303 kts | 124° |
| 2026-04-27 01:20 | 11.00100 | -62.26013 | 15364 ft | 300 kts | 124° |
| 2026-04-27 01:20 | 10.98983 | -62.24260 | 15053 ft | 298 kts | 124° |
| 2026-04-27 01:21 | 10.97859 | -62.22498 | 14752 ft | 296 kts | 124° |
| 2026-04-27 01:21 | 10.96742 | -62.20747 | 14437 ft | 294 kts | 123° |
| 2026-04-27 01:21 | 10.95631 | -62.19005 | 14134 ft | 292 kts | 123° |
| 2026-04-27 01:21 | 10.94529 | -62.17277 | 13818 ft | 291 kts | 123° |
| 2026-04-27 01:22 | 10.93434 | -62.15560 | 13481 ft | 289 kts | 123° |
| 2026-04-27 01:22 | 10.92342 | -62.13850 | 13153 ft | 286 kts | 123° |
| 2026-04-27 01:22 | 10.91262 | -62.12158 | 12843 ft | 284 kts | 123° |
| 2026-04-27 01:22 | 10.90192 | -62.10481 | 12538 ft | 281 kts | 123° |
| 2026-04-27 01:23 | 10.89133 | -62.08822 | 12243 ft | 279 kts | 123° |
| 2026-04-27 01:23 | 10.88095 | -62.07197 | 11946 ft | 276 kts | 123° |
| 2026-04-27 01:23 | 10.87052 | -62.05564 | 11658 ft | 274 kts | 123° |
| 2026-04-27 01:23 | 10.86019 | -62.03946 | 11368 ft | 272 kts | 123° |
| 2026-04-27 01:24 | 10.84996 | -62.02345 | 11081 ft | 269 kts | 123° |
| 2026-04-27 01:24 | 10.83977 | -62.00750 | 10796 ft | 267 kts | 123° |
| 2026-04-27 01:24 | 10.82969 | -61.99172 | 10516 ft | 266 kts | 123° |
| 2026-04-27 01:24 | 10.81966 | -61.97602 | 10233 ft | 264 kts | 123° |
| 2026-04-27 01:25 | 10.80969 | -61.96042 | 9951 ft | 262 kts | 124° |
| 2026-04-27 01:25 | 10.79976 | -61.94490 | 9649 ft | 261 kts | 124° |
| 2026-04-27 01:25 | 10.78991 | -61.92948 | 9352 ft | 259 kts | 123° |
| 2026-04-27 01:25 | 10.78025 | -61.91439 | 9068 ft | 257 kts | 123° |
| 2026-04-27 01:26 | 10.77059 | -61.89928 | 8794 ft | 254 kts | 123° |
| 2026-04-27 01:26 | 10.76197 | -61.88580 | 8546 ft | 252 kts | 123° |
| 2026-04-27 01:26 | 10.75291 | -61.87164 | 8293 ft | 255 kts | 123° |
| 2026-04-27 01:26 | 10.74314 | -61.85638 | 8009 ft | 260 kts | 123° |
| 2026-04-27 01:27 | 10.73371 | -61.84162 | 7741 ft | 262 kts | 123° |
| 2026-04-27 01:27 | 10.72377 | -61.82609 | 7460 ft | 262 kts | 123° |
| 2026-04-27 01:27 | 10.71424 | -61.81121 | 7190 ft | 262 kts | 123° |
| 2026-04-27 01:27 | 10.70436 | -61.79576 | 6899 ft | 260 kts | 123° |
| 2026-04-27 01:28 | 10.69783 | -61.78557 | 6719 ft | 259 kts | 123° |
| 2026-04-27 01:28 | 10.68520 | -61.76585 | 6353 ft | 257 kts | 123° |
| 2026-04-27 01:28 | 10.67561 | -61.75088 | 6059 ft | 255 kts | 123° |
| 2026-04-27 01:28 | 10.66623 | -61.73623 | 5779 ft | 253 kts | 123° |
| 2026-04-27 01:29 | 10.63986 | -61.69507 | 5023 ft | 247 kts | 122° |
| 2026-04-27 01:29 | 10.63054 | -61.68051 | 4753 ft | 245 kts | 122° |
| 2026-04-27 01:30 | 10.62129 | -61.66609 | 4476 ft | 243 kts | 122° |
| 2026-04-27 01:30 | 10.61253 | -61.65242 | 4231 ft | 241 kts | 122° |
| 2026-04-27 01:30 | 10.60352 | -61.63837 | 4127 ft | 232 kts | 122° |
| 2026-04-27 01:30 | 10.59660 | -61.62478 | 4040 ft | 222 kts | 103° |
| 2026-04-27 01:31 | 10.59541 | -61.60969 | 3882 ft | 215 kts | 92° |
| 2026-04-27 01:31 | 10.59512 | -61.59471 | 3748 ft | 208 kts | 91° |
| 2026-04-27 01:31 | 10.59496 | -61.58091 | 3628 ft | 201 kts | 91° |
| 2026-04-27 01:31 | 10.59486 | -61.56673 | 3509 ft | 203 kts | 91° |
| 2026-04-27 01:32 | 10.59481 | -61.55304 | 3424 ft | 199 kts | 91° |
| 2026-04-27 01:32 | 10.59480 | -61.53925 | 3301 ft | 191 kts | 90° |
| 2026-04-27 01:32 | 10.59481 | -61.52595 | 3157 ft | 185 kts | 90° |
| 2026-04-27 01:32 | 10.59483 | -61.51289 | 2955 ft | 186 kts | 90° |
| 2026-04-27 01:33 | 10.59486 | -61.50047 | 2703 ft | 186 kts | 90° |
| 2026-04-27 01:33 | 10.59489 | -61.48737 | 2505 ft | 183 kts | 89° |
| 2026-04-27 01:33 | 10.59494 | -61.47529 | 2395 ft | 173 kts | 90° |
| 2026-04-27 01:33 | 10.59497 | -61.46373 | 2244 ft | 153 kts | 90° |
| 2026-04-27 01:34 | 10.59501 | -61.45314 | 2091 ft | 148 kts | 90° |
| 2026-04-27 01:34 | 10.59505 | -61.44330 | 1862 ft | 142 kts | 90° |
| 2026-04-27 01:34 | 10.59522 | -61.43342 | 1562 ft | 139 kts | 89° |
| 2026-04-27 01:34 | 10.59565 | -61.42413 | 1326 ft | 139 kts | 88° |
| 2026-04-27 01:35 | 10.59566 | -61.41431 | 1181 ft | 139 kts | 92° |
| 2026-04-27 01:35 | 10.59528 | -61.40443 | 1088 ft | 142 kts | 92° |
| 2026-04-27 01:35 | 10.59509 | -61.39482 | 994 ft | 142 kts | 90° |
| 2026-04-27 01:35 | 10.59525 | -61.38486 | 830 ft | 138 kts | 91° |
| 2026-04-27 01:36 | 10.59525 | -61.37510 | 624 ft | 140 kts | 91° |
| 2026-04-27 01:36 | 10.59521 | -61.36534 | 463 ft | 146 kts | 89° |
| 2026-04-27 01:36 | 10.59533 | -61.35507 | 297 ft | 145 kts | 90° |
| 2026-04-27 01:36 | 10.59536 | -61.34509 | 205 ft | 130 kts | 90° |
| 2026-04-27 01:37 | 10.59538 | -61.33736 | 203 ft | 96 kts | 90° |
| 2026-04-27 01:37 | 10.59539 | -61.33286 | 200 ft | 39 kts | 90° |
| 2026-04-27 01:37 | 10.59540 | -61.33113 | 202 ft | 23 kts | 90° |
| 2026-04-27 01:37 | 10.59568 | -61.32977 | 195 ft | 16 kts | 39° |
| 2026-04-27 01:38 | 10.59662 | -61.32963 | 199 ft | 12 kts | 342° |
| 2026-04-27 01:38 | 10.59709 | -61.33001 | 205 ft | 6 kts | 287° |
| 2026-04-27 01:38 | 10.59711 | -61.33052 | 200 ft | 9 kts | 268° |
| 2026-04-27 01:38 | 10.59710 | -61.33123 | 200 ft | 12 kts | 270° |
| 2026-04-27 01:39 | 10.59710 | -61.33212 | 200 ft | 15 kts | 270° |
| 2026-04-27 01:39 | 10.59710 | -61.33326 | 200 ft | 18 kts | 270° |
| 2026-04-27 01:39 | 10.59709 | -61.33451 | 200 ft | 20 kts | 269° |
| 2026-04-27 01:39 | 10.59709 | -61.33601 | 201 ft | 22 kts | 269° |
| 2026-04-27 01:40 | 10.59733 | -61.33719 | 214 ft | 15 kts | 321° |
| 2026-04-27 01:40 | 10.59826 | -61.33757 | 205 ft | 12 kts | 318° |
| 2026-04-27 01:40 | 10.59838 | -61.33847 | 202 ft | 14 kts | 272° |
| 2026-04-27 01:40 | 10.59859 | -61.33919 | 205 ft | 9 kts | 339° |
| 2026-04-27 01:41 | 10.59915 | -61.33912 | 211 ft | 9 kts | 10° |
| 2026-04-27 01:41 | 10.59953 | -61.33904 | 213 ft | 4 kts | 12° |
| 2026-04-27 01:41 | 10.59960 | -61.33903 | 211 ft | 0 kts | 11° |
| 2026-04-27 01:41 | 10.59963 | -61.33902 | 211 ft | 2 kts | 11° |
| 2026-04-27 01:42 | 10.59965 | -61.33902 | 208 ft | 0 kts | 11° |